createdAt,value
2017-07-10T00:02:10.508Z,66.96
2017-07-10T00:04:37.913Z,67.58
2017-07-10T00:07:05.319Z,67.52
2017-07-10T00:09:32.722Z,67.62
2017-07-10T00:12:00.122Z,67.74
2017-07-10T00:14:27.528Z,67.98
2017-07-10T00:16:54.923Z,68.15
2017-07-10T00:19:22.322Z,67.94
2017-07-10T00:21:49.728Z,68.16
2017-07-10T00:24:17.132Z,67.79
2017-07-10T00:26:44.537Z,67.59
2017-07-10T00:29:11.936Z,67.51
2017-07-10T00:31:39.339Z,67.41
2017-07-10T00:34:06.772Z,67.33
2017-07-10T00:36:34.189Z,67.19
2017-07-10T00:39:01.584Z,66.95
2017-07-10T00:41:28.987Z,67.12
2017-07-10T00:43:56.387Z,66.90
2017-07-10T00:46:23.787Z,66.97
2017-07-10T00:48:51.187Z,66.69
2017-07-10T00:51:18.591Z,66.79
2017-07-10T00:53:45.982Z,66.91
2017-07-10T00:56:13.387Z,66.84
2017-07-10T00:58:40.783Z,66.94
2017-07-10T01:01:08.176Z,66.91
2017-07-10T01:03:35.575Z,66.63
2017-07-10T01:06:02.976Z,66.78
2017-07-10T01:08:30.376Z,66.98
2017-07-10T01:10:57.768Z,67.13
2017-07-10T01:13:25.167Z,67.30
2017-07-10T01:15:52.566Z,67.14
2017-07-10T01:18:19.980Z,67.12
2017-07-10T01:20:47.375Z,67.11
2017-07-10T01:23:14.783Z,67.29
2017-07-10T01:25:42.171Z,67.41
2017-07-10T01:28:09.574Z,67.14
2017-07-10T01:30:37.277Z,67.22
2017-07-10T01:33:04.683Z,67.63
2017-07-10T01:35:32.078Z,67.67
2017-07-10T01:37:59.484Z,67.70
2017-07-10T01:40:26.883Z,67.56
2017-07-10T01:42:54.291Z,68.20
2017-07-10T01:45:21.688Z,67.85
2017-07-10T01:47:49.096Z,68.07
2017-07-10T01:50:16.492Z,68.00
2017-07-10T01:52:43.893Z,68.37
2017-07-10T01:55:11.295Z,68.25
2017-07-10T01:57:38.709Z,68.36
2017-07-10T02:00:06.098Z,68.35
2017-07-10T02:02:33.503Z,68.07
2017-07-10T02:05:00.896Z,68.62
2017-07-10T02:07:28.295Z,68.39
2017-07-10T02:09:55.689Z,67.97
2017-07-10T02:12:23.078Z,67.83
2017-07-10T02:14:50.473Z,67.70
2017-07-10T02:17:17.871Z,67.87
2017-07-10T02:19:45.272Z,67.98
2017-07-10T02:22:12.667Z,68.25
2017-07-10T02:24:40.063Z,68.06
2017-07-10T02:27:07.460Z,67.64
2017-07-10T02:29:34.855Z,67.35
2017-07-10T02:32:02.248Z,67.74
2017-07-10T02:34:29.645Z,67.84
2017-07-10T02:36:57.039Z,67.37
2017-07-10T02:39:24.440Z,67.21
2017-07-10T02:41:51.833Z,66.71
2017-07-10T02:44:19.218Z,66.98
2017-07-10T02:46:46.609Z,67.29
2017-07-10T02:49:14.001Z,67.76
2017-07-10T02:51:41.384Z,67.37
2017-07-10T02:54:08.784Z,67.13
2017-07-10T02:56:36.168Z,66.98
2017-07-10T02:59:03.578Z,66.82
2017-07-10T03:01:30.971Z,66.79
2017-07-10T03:03:58.368Z,66.25
2017-07-10T03:06:25.771Z,66.00
2017-07-10T03:08:53.172Z,66.34
2017-07-10T03:11:20.575Z,66.34
2017-07-10T03:13:47.976Z,66.67
2017-07-10T03:16:15.371Z,66.58
2017-07-10T03:18:42.771Z,66.92
2017-07-10T03:21:10.168Z,66.54
2017-07-10T03:23:37.572Z,66.84
2017-07-10T03:26:04.955Z,66.89
2017-07-10T03:28:32.359Z,66.67
2017-07-10T03:30:59.753Z,66.75
2017-07-10T03:33:27.156Z,66.28
2017-07-10T03:35:54.552Z,66.31
2017-07-10T03:38:21.936Z,66.24
2017-07-10T03:40:49.340Z,66.28
2017-07-10T03:43:16.724Z,66.04
2017-07-10T03:45:44.128Z,65.92
2017-07-10T03:48:19.300Z,66.00
2017-07-10T03:50:46.703Z,66.30
2017-07-10T03:53:14.367Z,66.18
2017-07-10T03:55:41.771Z,66.14
2017-07-10T03:58:09.157Z,66.97
2017-07-10T04:00:36.552Z,67.06
2017-07-10T04:03:03.947Z,66.69
2017-07-10T04:05:31.347Z,66.51
2017-07-10T04:07:58.747Z,66.36
2017-07-10T04:10:26.143Z,66.75
2017-07-10T04:12:53.536Z,66.74
2017-07-10T04:15:20.932Z,66.78
2017-07-10T04:17:48.323Z,67.76
2017-07-10T04:20:15.724Z,67.14
2017-07-10T04:22:43.115Z,67.15
2017-07-10T04:25:10.518Z,68.47
2017-07-10T04:27:37.910Z,69.34
2017-07-10T04:30:05.594Z,68.45
2017-07-10T04:32:32.999Z,69.82
2017-07-10T04:35:00.404Z,68.86
2017-07-10T04:37:27.797Z,69.32
2017-07-10T04:39:55.196Z,69.45
2017-07-10T04:42:22.587Z,68.91
2017-07-10T04:44:50.174Z,68.49
2017-07-10T04:47:17.576Z,68.66
2017-07-10T04:49:44.984Z,68.59
2017-07-10T04:52:12.386Z,68.29
2017-07-10T04:54:39.798Z,68.73
2017-07-10T04:57:07.195Z,69.04
2017-07-10T04:59:34.603Z,69.15
2017-07-10T05:02:01.996Z,69.46
2017-07-10T05:04:29.384Z,68.89
2017-07-10T05:06:56.779Z,68.59
2017-07-10T05:09:24.181Z,68.85
2017-07-10T05:11:51.704Z,68.10
2017-07-10T05:14:19.099Z,67.94
2017-07-10T05:16:46.503Z,68.15
2017-07-10T05:19:13.900Z,68.08
2017-07-10T05:21:41.308Z,69.02
2017-07-10T05:24:08.699Z,68.99
2017-07-10T05:26:36.390Z,69.52
2017-07-10T05:29:03.776Z,69.00
2017-07-10T05:31:31.190Z,69.05
2017-07-10T05:33:58.592Z,69.50
2017-07-10T05:36:25.999Z,68.98
2017-07-10T05:38:53.393Z,68.98
2017-07-10T05:41:20.792Z,69.16
2017-07-10T05:43:48.185Z,69.78
2017-07-10T05:46:15.603Z,70.54
2017-07-10T05:48:42.980Z,69.96
2017-07-10T05:51:10.405Z,69.52
2017-07-10T05:53:37.787Z,69.30
2017-07-10T05:56:05.192Z,69.31
2017-07-10T05:58:32.629Z,69.73
2017-07-10T06:01:00.008Z,68.80
2017-07-10T06:03:27.416Z,68.54
2017-07-10T06:05:54.826Z,68.54
2017-07-10T06:08:22.267Z,68.81
2017-07-10T06:10:49.659Z,67.75
2017-07-10T06:13:17.067Z,67.41
2017-07-10T06:15:44.515Z,66.98
2017-07-10T06:18:11.911Z,67.41
2017-07-10T06:20:39.314Z,69.87
2017-07-10T06:23:06.706Z,71.47
2017-07-10T06:25:34.107Z,71.34
2017-07-10T06:28:01.502Z,72.76
2017-07-10T06:30:28.891Z,72.08
2017-07-10T06:32:56.584Z,72.72
2017-07-10T06:35:24.240Z,72.53
2017-07-10T06:37:51.641Z,74.20
2017-07-10T06:40:19.047Z,73.03
2017-07-10T06:42:46.444Z,73.40
2017-07-10T06:45:13.849Z,73.06
2017-07-10T06:47:41.244Z,72.82
2017-07-10T06:50:08.637Z,72.47
2017-07-10T06:52:36.050Z,72.75
2017-07-10T06:55:03.450Z,73.78
2017-07-10T06:57:30.847Z,73.65
2017-07-10T06:59:58.240Z,73.77
2017-07-10T07:02:25.635Z,73.83
2017-07-10T07:04:53.033Z,74.26
2017-07-10T07:07:20.447Z,73.77
2017-07-10T07:09:47.840Z,74.10
2017-07-10T07:12:15.236Z,74.88
2017-07-10T07:14:42.640Z,73.90
2017-07-10T07:17:10.055Z,74.22
2017-07-10T07:19:37.453Z,73.67
2017-07-10T07:22:04.851Z,74.19
2017-07-10T07:24:32.256Z,74.60
2017-07-10T07:26:59.644Z,76.72
2017-07-10T07:29:27.052Z,76.50
2017-07-10T07:31:54.440Z,76.47
2017-07-10T07:34:21.851Z,76.39
2017-07-10T07:36:49.243Z,75.58
2017-07-10T07:39:16.643Z,76.40
2017-07-10T07:41:44.038Z,77.86
2017-07-10T07:44:11.445Z,77.40
2017-07-10T07:46:38.835Z,78.19
2017-07-10T07:49:06.236Z,77.85
2017-07-10T07:51:33.663Z,78.49
2017-07-10T07:54:01.067Z,78.09
2017-07-10T07:56:28.467Z,79.37
2017-07-10T07:58:55.868Z,79.51
2017-07-10T08:01:23.271Z,78.85
2017-07-10T08:03:50.666Z,78.57
2017-07-10T08:06:18.067Z,78.94
2017-07-10T08:08:45.473Z,79.01
2017-07-10T08:11:12.871Z,79.35
2017-07-10T08:13:40.271Z,78.70
2017-07-10T08:16:07.664Z,78.98
2017-07-10T08:18:35.059Z,78.16
2017-07-10T08:21:02.481Z,78.65
2017-07-10T08:23:29.874Z,79.67
2017-07-10T08:25:57.276Z,78.78
2017-07-10T08:28:24.673Z,78.46
2017-07-10T08:30:52.088Z,78.74
2017-07-10T08:33:19.513Z,78.85
2017-07-10T08:35:46.915Z,78.85
2017-07-10T08:38:14.311Z,79.34
2017-07-10T08:40:41.720Z,79.55
2017-07-10T08:43:09.111Z,79.10
2017-07-10T08:45:36.500Z,79.73
2017-07-10T08:48:03.892Z,79.92
2017-07-10T08:50:31.296Z,80.91
2017-07-10T08:52:58.684Z,80.46
2017-07-10T08:55:26.096Z,79.87
2017-07-10T08:57:53.483Z,79.20
2017-07-10T09:00:20.879Z,79.04
2017-07-10T09:02:48.267Z,78.90
2017-07-10T09:05:15.673Z,78.39
2017-07-10T09:07:43.058Z,78.26
2017-07-10T09:10:10.464Z,77.75
2017-07-10T09:12:37.865Z,78.97
2017-07-10T09:15:05.260Z,78.09
2017-07-10T09:17:32.891Z,78.69
2017-07-10T09:20:00.304Z,78.63
2017-07-10T09:22:27.694Z,77.52
2017-07-10T09:24:55.105Z,76.30
2017-07-10T09:27:22.821Z,76.95
2017-07-10T09:29:50.258Z,75.83
2017-07-10T09:32:17.935Z,76.49
2017-07-10T09:34:45.336Z,76.49
2017-07-10T09:37:13.055Z,77.04
2017-07-10T09:39:40.471Z,77.64
2017-07-10T09:42:07.876Z,78.67
2017-07-10T09:44:35.305Z,78.61
2017-07-10T09:47:02.708Z,79.00
2017-07-10T09:49:30.116Z,79.91
2017-07-10T09:51:57.524Z,81.15
2017-07-10T09:54:24.924Z,80.34
2017-07-10T09:56:52.334Z,80.03
2017-07-10T09:59:19.742Z,80.70
2017-07-10T10:01:47.162Z,81.57
2017-07-10T10:04:14.564Z,81.07
2017-07-10T10:06:41.984Z,80.47
2017-07-10T10:09:09.389Z,79.98
2017-07-10T10:11:36.824Z,80.28
2017-07-10T10:14:04.233Z,80.60
2017-07-10T10:16:31.640Z,79.73
2017-07-10T10:18:59.039Z,79.60
2017-07-10T10:21:26.447Z,78.94
2017-07-10T10:23:53.852Z,79.23
2017-07-10T10:26:21.255Z,80.54
2017-07-10T10:28:48.659Z,77.68
2017-07-10T10:31:16.056Z,76.12
2017-07-10T10:33:43.448Z,75.62
2017-07-10T10:36:10.858Z,75.09
2017-07-10T10:38:38.255Z,75.97
2017-07-10T10:41:05.670Z,76.63
2017-07-10T10:43:33.080Z,76.60
2017-07-10T10:46:00.480Z,76.53
2017-07-10T10:48:27.893Z,77.87
2017-07-10T10:50:55.300Z,76.55
2017-07-10T10:53:22.881Z,75.75
2017-07-10T10:55:50.281Z,77.01
2017-07-10T10:58:17.694Z,77.42
2017-07-10T11:00:45.105Z,78.09
2017-07-10T11:03:12.511Z,77.02
2017-07-10T11:05:39.921Z,77.30
2017-07-10T11:08:07.355Z,77.42
2017-07-10T11:10:34.750Z,76.15
2017-07-10T11:13:02.163Z,77.11
2017-07-10T11:15:29.569Z,76.32
2017-07-10T11:17:56.976Z,75.83
2017-07-10T11:20:24.372Z,76.20
2017-07-10T11:22:51.990Z,76.14
2017-07-10T11:25:19.392Z,75.93
2017-07-10T11:27:46.819Z,76.27
2017-07-10T11:30:14.207Z,76.11
2017-07-10T11:32:41.612Z,75.48
2017-07-10T11:35:09.007Z,75.46
2017-07-10T11:37:36.416Z,75.97
2017-07-10T11:40:03.813Z,75.80
2017-07-10T11:42:31.228Z,76.95
2017-07-10T11:44:58.628Z,76.21
2017-07-10T11:47:26.043Z,76.57
2017-07-10T11:49:53.443Z,76.75
2017-07-10T11:52:20.852Z,77.46
2017-07-10T11:54:48.248Z,78.16
2017-07-10T11:57:15.728Z,77.54
2017-07-10T11:59:43.130Z,78.31
2017-07-10T12:02:10.527Z,77.87
2017-07-10T12:04:37.941Z,78.86
2017-07-10T12:07:05.327Z,77.91
2017-07-10T12:09:32.736Z,79.33
2017-07-10T12:12:00.127Z,79.12
2017-07-10T12:14:27.541Z,79.46
2017-07-10T12:16:54.939Z,79.45
2017-07-10T12:19:22.348Z,79.92
2017-07-10T12:21:49.736Z,79.96
2017-07-10T12:24:17.146Z,80.21
2017-07-10T12:26:44.537Z,81.24
2017-07-10T12:29:11.938Z,80.55
2017-07-10T12:31:39.348Z,80.32
2017-07-10T12:34:07.064Z,80.28
2017-07-10T12:36:34.448Z,79.61
2017-07-10T12:39:01.866Z,79.66
2017-07-10T12:41:29.271Z,80.27
2017-07-10T12:43:56.687Z,81.58
2017-07-10T12:46:24.089Z,81.57
2017-07-10T12:48:51.567Z,81.73
2017-07-10T12:51:18.911Z,81.98
2017-07-10T12:53:46.331Z,80.97
2017-07-10T12:56:13.730Z,81.38
2017-07-10T12:58:41.428Z,81.73
2017-07-10T13:01:08.821Z,82.13
2017-07-10T13:03:36.236Z,82.10
2017-07-10T13:06:03.636Z,82.53
2017-07-10T13:08:31.055Z,81.57
2017-07-10T13:10:58.455Z,81.41
2017-07-10T13:13:25.869Z,81.33
2017-07-10T13:15:53.264Z,80.80
2017-07-10T13:18:21.491Z,79.77
2017-07-10T13:20:48.892Z,79.86
2017-07-10T13:23:16.291Z,79.50
2017-07-10T13:25:43.689Z,79.27
2017-07-10T13:28:11.075Z,78.38
2017-07-10T13:30:38.475Z,78.72
2017-07-10T13:33:05.867Z,78.87
2017-07-10T13:35:33.263Z,78.22
2017-07-10T13:38:00.657Z,77.94
2017-07-10T13:43:18.825Z,77.02
2017-07-10T13:45:46.229Z,77.22
2017-07-10T13:48:13.630Z,77.37
2017-07-10T13:53:31.686Z,76.91
2017-07-10T13:55:59.097Z,77.72
2017-07-10T13:58:26.491Z,78.53
2017-07-10T14:00:53.882Z,78.40
2017-07-10T14:03:21.293Z,78.07
2017-07-10T14:05:48.687Z,77.88
2017-07-10T14:08:16.082Z,77.86
2017-07-10T14:10:43.479Z,77.42
2017-07-10T14:13:10.878Z,77.36
2017-07-10T14:15:38.276Z,77.25
2017-07-10T14:18:05.663Z,77.00
2017-07-10T14:20:33.067Z,77.42
2017-07-10T14:23:00.449Z,78.92
2017-07-10T14:25:27.845Z,78.60
2017-07-10T14:27:55.244Z,79.24
2017-07-10T14:30:22.642Z,79.27
2017-07-10T14:32:50.029Z,79.60
2017-07-10T14:35:17.426Z,80.40
2017-07-10T14:37:44.815Z,78.56
2017-07-10T14:40:12.503Z,78.84
2017-07-10T14:42:39.896Z,78.38
2017-07-10T14:45:07.308Z,77.56
2017-07-10T14:47:34.695Z,77.96
2017-07-10T14:50:02.095Z,78.66
2017-07-10T14:52:29.488Z,78.01
2017-07-10T14:54:56.895Z,78.06
2017-07-10T14:57:24.296Z,78.70
2017-07-10T14:59:51.681Z,79.93
2017-07-10T15:02:19.080Z,78.93
2017-07-10T15:04:46.467Z,79.44
2017-07-10T15:07:13.859Z,78.50
2017-07-10T15:09:41.261Z,78.86
2017-07-10T15:12:08.657Z,79.48
2017-07-10T15:14:36.064Z,77.75
2017-07-10T15:17:03.473Z,77.84
2017-07-10T15:19:30.871Z,78.20
2017-07-10T15:21:58.267Z,78.22
2017-07-10T15:24:25.671Z,77.79
2017-07-10T15:26:53.361Z,79.03
2017-07-10T15:29:21.023Z,77.65
2017-07-10T15:31:48.424Z,77.65
2017-07-10T15:34:15.824Z,77.34
2017-07-10T15:36:43.223Z,76.73
2017-07-10T15:39:10.618Z,77.19
2017-07-10T15:41:38.025Z,77.10
2017-07-10T15:44:05.416Z,75.41
2017-07-10T15:46:32.821Z,74.85
2017-07-10T15:49:00.290Z,74.94
2017-07-10T15:51:27.700Z,76.00
2017-07-10T15:53:55.085Z,75.77
2017-07-10T15:56:22.476Z,73.01
2017-07-10T15:58:50.198Z,72.87
2017-07-10T16:01:17.594Z,73.06
2017-07-10T16:03:44.983Z,72.68
2017-07-10T16:06:12.367Z,72.29
2017-07-10T16:08:39.766Z,71.87
2017-07-10T16:11:07.163Z,71.85
2017-07-10T16:13:34.575Z,72.06
2017-07-10T16:16:01.982Z,71.69
2017-07-10T16:18:29.390Z,72.81
2017-07-10T16:20:56.779Z,72.35
2017-07-10T16:23:24.173Z,72.39
2017-07-10T16:25:51.587Z,72.80
2017-07-10T16:28:18.987Z,71.95
2017-07-10T16:30:46.375Z,71.30
2017-07-10T16:33:13.775Z,70.43
2017-07-10T16:35:41.176Z,70.27
2017-07-10T16:38:08.580Z,70.45
2017-07-10T16:40:35.964Z,71.69
2017-07-10T16:43:03.361Z,70.91
2017-07-10T16:45:30.752Z,70.93
2017-07-10T16:47:58.152Z,71.00
2017-07-10T16:50:25.543Z,71.19
2017-07-10T16:52:52.947Z,71.52
2017-07-10T16:55:20.326Z,71.88
2017-07-10T16:57:47.723Z,73.00
2017-07-10T17:00:15.123Z,71.87
2017-07-10T17:02:42.536Z,71.50
2017-07-10T17:05:09.937Z,70.83
2017-07-10T17:07:37.330Z,70.53
2017-07-10T17:10:04.720Z,71.04
2017-07-10T17:12:32.142Z,70.86
2017-07-10T17:14:59.539Z,69.77
2017-07-10T17:17:26.939Z,69.40
2017-07-10T17:19:54.336Z,69.85
2017-07-10T17:22:21.732Z,69.82
2017-07-10T17:24:49.131Z,69.50
2017-07-10T17:27:16.538Z,69.56
2017-07-10T17:29:43.940Z,69.36
2017-07-10T17:32:11.344Z,69.68
2017-07-10T17:34:38.749Z,68.39
2017-07-10T17:37:06.136Z,67.20
2017-07-10T17:39:33.537Z,67.54
2017-07-10T17:42:00.941Z,67.60
2017-07-10T17:44:28.340Z,68.04
2017-07-10T17:46:55.735Z,66.32
2017-07-10T17:49:23.132Z,68.91
2017-07-10T17:51:50.515Z,68.86
2017-07-10T17:54:17.923Z,68.87
2017-07-10T17:56:45.327Z,68.83
2017-07-10T17:59:12.739Z,68.08
2017-07-10T18:01:40.136Z,68.00
2017-07-10T18:04:07.544Z,68.60
2017-07-10T18:06:35.210Z,68.17
2017-07-10T18:09:03.970Z,68.19
2017-07-10T18:11:31.449Z,69.16
2017-07-10T18:13:59.186Z,69.54
2017-07-10T18:16:26.892Z,69.83
2017-07-10T18:18:54.581Z,70.13
2017-07-10T18:21:23.103Z,70.01
2017-07-10T18:23:50.871Z,69.55
2017-07-10T18:26:18.420Z,68.44
2017-07-10T18:28:45.815Z,68.40
2017-07-10T18:31:13.218Z,68.73
2017-07-10T18:33:40.603Z,68.84
2017-07-10T18:36:08.004Z,68.84
2017-07-10T18:38:35.392Z,68.63
2017-07-10T18:41:03.042Z,68.04
2017-07-10T18:43:30.434Z,68.42
2017-07-10T18:45:57.850Z,68.82
2017-07-10T18:48:25.249Z,68.38
2017-07-10T18:50:52.642Z,68.24
2017-07-10T18:53:20.039Z,68.80
2017-07-10T18:55:47.435Z,68.76
2017-07-10T18:58:14.835Z,68.37
2017-07-10T19:00:42.268Z,68.88
2017-07-10T19:03:09.662Z,69.03
2017-07-10T19:05:37.068Z,69.34
2017-07-10T19:08:04.455Z,69.35
2017-07-10T19:10:31.852Z,69.58
2017-07-10T19:12:59.238Z,69.41
2017-07-10T19:15:26.688Z,69.84
2017-07-10T19:17:54.076Z,69.65
2017-07-10T19:20:21.739Z,69.58
2017-07-10T19:22:49.188Z,69.67
2017-07-10T19:25:16.610Z,69.40
2017-07-10T19:27:44.025Z,69.40
2017-07-10T19:30:11.422Z,69.39
2017-07-10T19:32:38.832Z,69.36
2017-07-10T19:35:06.234Z,69.45
2017-07-10T19:37:33.639Z,69.47
2017-07-10T19:40:01.056Z,69.78
2017-07-10T19:42:28.450Z,69.64
2017-07-10T19:44:55.845Z,69.52
2017-07-10T19:47:23.235Z,69.75
2017-07-10T19:49:50.632Z,70.73
2017-07-10T19:52:18.364Z,69.91
2017-07-10T19:54:45.804Z,70.05
2017-07-10T19:57:13.215Z,69.82
2017-07-10T19:59:40.606Z,69.83
2017-07-10T20:02:08.009Z,70.02
2017-07-10T20:04:35.403Z,70.32
2017-07-10T20:07:02.802Z,69.56
2017-07-10T20:09:30.191Z,69.85
2017-07-10T20:11:57.590Z,69.41
2017-07-10T20:14:24.983Z,69.43
2017-07-10T20:16:52.379Z,70.14
2017-07-10T20:19:19.774Z,69.84
2017-07-10T20:21:47.167Z,69.96
2017-07-10T20:24:14.570Z,70.17
2017-07-10T20:26:41.947Z,69.87
2017-07-10T20:29:09.344Z,69.76
2017-07-10T20:31:36.748Z,69.62
2017-07-10T20:34:04.147Z,69.83
2017-07-10T20:36:31.547Z,69.74
2017-07-10T20:38:58.943Z,69.82
2017-07-10T20:41:26.405Z,70.79
2017-07-10T20:43:53.828Z,71.55
2017-07-10T20:46:21.230Z,72.25
2017-07-10T20:48:48.624Z,72.58
2017-07-10T20:51:16.022Z,72.45
2017-07-10T20:53:43.412Z,72.34
2017-07-10T20:56:10.810Z,71.89
2017-07-10T20:58:38.214Z,71.79
2017-07-10T21:01:05.613Z,71.62
2017-07-10T21:03:33.016Z,71.34
2017-07-10T21:06:00.415Z,71.48
2017-07-10T21:08:27.822Z,71.44
2017-07-10T21:10:55.211Z,71.04
2017-07-10T21:13:22.654Z,71.20
2017-07-10T21:15:50.053Z,70.71
2017-07-10T21:18:17.448Z,70.85
2017-07-10T21:20:44.843Z,71.06
2017-07-10T21:23:12.247Z,71.92
2017-07-10T21:25:39.628Z,72.41
2017-07-10T21:28:07.058Z,72.36
2017-07-10T21:30:34.452Z,72.53
2017-07-10T21:33:01.870Z,72.38
2017-07-10T21:35:29.263Z,72.83
2017-07-10T21:37:56.666Z,73.41
2017-07-10T21:40:24.054Z,73.91
2017-07-10T21:42:51.455Z,72.91
2017-07-10T21:45:18.863Z,73.14
2017-07-10T21:47:46.264Z,73.36
2017-07-10T21:50:13.652Z,73.46
2017-07-10T21:52:41.055Z,73.30
2017-07-10T21:55:08.463Z,72.57
2017-07-10T21:57:35.855Z,72.28
2017-07-10T22:00:03.249Z,72.01
2017-07-10T22:02:30.647Z,71.72
2017-07-10T22:04:58.039Z,71.22
2017-07-10T22:07:25.450Z,70.62
2017-07-10T22:09:52.859Z,71.10
2017-07-10T22:12:20.251Z,71.58
2017-07-10T22:14:47.671Z,71.24
2017-07-10T22:17:15.062Z,71.29
2017-07-10T22:19:42.472Z,72.03
2017-07-10T22:22:09.867Z,72.59
2017-07-10T22:24:37.299Z,72.56
2017-07-10T22:27:04.687Z,71.94
2017-07-10T22:29:32.407Z,72.04
2017-07-10T22:31:59.799Z,72.77
2017-07-10T22:34:27.199Z,72.22
2017-07-10T22:36:54.595Z,71.70
2017-07-10T22:39:21.988Z,72.50
2017-07-10T22:41:49.388Z,72.78
2017-07-10T22:44:16.780Z,73.04
2017-07-10T22:46:44.191Z,72.89
2017-07-10T22:49:11.592Z,72.90
2017-07-10T22:51:38.988Z,73.03
2017-07-10T22:54:06.388Z,72.97
2017-07-10T22:56:33.788Z,72.68
2017-07-10T22:59:01.193Z,73.34
2017-07-10T23:01:28.587Z,73.73
2017-07-10T23:03:55.992Z,72.59
2017-07-10T23:06:23.389Z,71.41
2017-07-10T23:08:50.778Z,70.76
2017-07-10T23:11:18.176Z,70.83
2017-07-10T23:13:45.580Z,70.60
2017-07-10T23:16:12.973Z,70.58
2017-07-10T23:18:40.375Z,70.38
2017-07-10T23:21:07.765Z,70.62
2017-07-10T23:23:35.151Z,71.70
2017-07-10T23:26:02.555Z,71.62
2017-07-10T23:28:29.935Z,72.03
2017-07-10T23:30:57.332Z,71.94
2017-07-10T23:33:24.735Z,71.49
2017-07-10T23:35:52.152Z,71.20
2017-07-10T23:38:19.545Z,70.59
2017-07-10T23:40:46.941Z,70.50
2017-07-10T23:43:14.346Z,70.29
2017-07-10T23:45:41.737Z,70.71
2017-07-10T23:48:09.143Z,70.56
2017-07-10T23:50:36.527Z,70.64
2017-07-10T23:53:03.915Z,70.50
2017-07-10T23:55:31.308Z,70.81
2017-07-10T23:57:58.705Z,71.01
